Hoytsville, Utah
Current Conditions -  °F | °C
As of 11:53 AM on Thursday 23 Oct 2014 (Local Time) from KEVW Reporting Station
Clear Clear  
Wind Chill: 61°   Ceiling: Unl
Heat Index: 61°   Visibility: 10mi
Dew Point: 26°   Wind: 17mph
Humidity: 26%   Direction: 220°SW
Pressure: 30.22"   Gusts: 25mph
Location:  40.9431°N, 111.212°W
Report Text: KEVW 231753Z AUTO 22015G22KT 10SM CLR 16/M03 A3022 RMK AO2 SLP176 T01611033 10167 20022 58004 TSNO
Loading
Personal Weather Stations






























Interactive Weather Map
Tropical Storm Tracking
New forecast layout! Learn more

10-Day Weather Forecast

Advertisements
Track Severe Weather on mobile